sensor_id;sensor_type;location;lat;lon;timestamp;pressure;altitude;pressure_sealevel;temperature;humidity
71057;BME280;58380;48.312;9.246;2023-05-20T06:44:10;93494.44;;;10.14;100.00
71057;BME280;58380;48.312;9.246;2023-05-20T06:46:35;93516.72;;;10.39;100.00
71057;BME280;58380;48.312;9.246;2023-05-20T06:49:01;93497.75;;;10.47;100.00
71057;BME280;58380;48.312;9.246;2023-05-20T06:51:27;93487.44;;;10.50;100.00
71057;BME280;58380;48.312;9.246;2023-05-20T06:53:52;93516.56;;;10.76;100.00
71057;BME280;58380;48.312;9.246;2023-05-20T06:56:18;93512.63;;;10.89;100.00
71057;BME280;58380;48.312;9.246;2023-05-20T06:58:44;93515.53;;;10.97;100.00
71057;BME280;58380;48.312;9.246;2023-05-20T07:01:09;93493.84;;;11.00;100.00
71057;BME280;58380;48.312;9.246;2023-05-20T07:03:35;93529.28;;;11.35;97.89
71057;BME280;58380;48.312;9.246;2023-05-20T07:06:00;93523.19;;;11.35;97.76
71057;BME280;58380;48.312;9.246;2023-05-20T07:08:25;93530.59;;;11.48;96.74
71057;BME280;58380;48.312;9.246;2023-05-20T07:10:54;93521.63;;;11.49;98.34
71057;BME280;58380;48.312;9.246;2023-05-20T07:13:20;93498.88;;;11.48;97.81
71057;BME280;58380;48.312;9.246;2023-05-20T07:15:48;93454.25;;;11.26;94.82
71057;BME280;58380;48.312;9.246;2023-05-20T07:18:14;93515.78;;;11.68;93.86
71057;BME280;58380;48.312;9.246;2023-05-20T07:20:40;93494.63;;;11.62;95.19
71057;BME280;58380;48.312;9.246;2023-05-20T07:23:05;93493.56;;;11.79;94.64
71057;BME280;58380;48.312;9.246;2023-05-20T07:25:31;93475.56;;;11.81;93.41
71057;BME280;58380;48.312;9.246;2023-05-20T07:27:56;93470.31;;;11.76;92.34
71057;BME280;58380;48.312;9.246;2023-05-20T07:30:22;93483.50;;;11.86;91.99
71057;BME280;58380;48.312;9.246;2023-05-20T07:32:47;93477.94;;;11.82;93.88
71057;BME280;58380;48.312;9.246;2023-05-20T07:35:13;93458.66;;;11.72;92.49
71057;BME280;58380;48.312;9.246;2023-05-20T07:37:38;93466.59;;;11.87;92.83
71057;BME280;58380;48.312;9.246;2023-05-20T07:40:04;93490.84;;;12.09;92.63
71057;BME280;58380;48.312;9.246;2023-05-20T07:42:31;93501.94;;;12.17;91.87
71057;BME280;58380;48.312;9.246;2023-05-20T07:44:56;93507.75;;;12.19;91.41
71057;BME280;58380;48.312;9.246;2023-05-20T07:47:22;93504.84;;;12.15;89.46
71057;BME280;58380;48.312;9.246;2023-05-20T07:49:47;93513.63;;;12.11;91.40
71057;BME280;58380;48.312;9.246;2023-05-20T07:52:13;93437.25;;;11.68;91.90
71057;BME280;58380;48.312;9.246;2023-05-20T07:54:40;93473.97;;;11.80;92.50
71057;BME280;58380;48.312;9.246;2023-05-20T07:57:05;93513.34;;;12.07;91.85
71057;BME280;58380;48.312;9.246;2023-05-20T07:59:31;93472.13;;;11.96;90.03
71057;BME280;58380;48.312;9.246;2023-05-20T08:01:57;93486.81;;;12.27;90.75
71057;BME280;58380;48.312;9.246;2023-05-20T08:04:22;93495.22;;;12.40;91.04
71057;BME280;58380;48.312;9.246;2023-05-20T08:06:48;93496.22;;;12.54;89.69
71057;BME280;58380;48.312;9.246;2023-05-20T08:09:13;93504.91;;;12.65;87.47
71057;BME280;58380;48.312;9.246;2023-05-20T08:11:39;93464.00;;;12.37;89.16
71057;BME280;58380;48.312;9.246;2023-05-20T08:14:04;93474.50;;;12.57;90.59
71057;BME280;58380;48.312;9.246;2023-05-20T08:16:30;93481.56;;;12.72;89.00
71057;BME280;58380;48.312;9.246;2023-05-20T08:18:55;93500.41;;;13.05;83.61
71057;BME280;58380;48.312;9.246;2023-05-20T08:21:21;93485.06;;;13.02;88.16
71057;BME280;58380;48.312;9.246;2023-05-20T08:23:46;93502.47;;;13.18;84.89
71057;BME280;58380;48.312;9.246;2023-05-20T08:26:12;93471.16;;;12.86;83.41
71057;BME280;58380;48.312;9.246;2023-05-20T08:28:37;93478.50;;;12.94;85.01
71057;BME280;58380;48.312;9.246;2023-05-20T08:31:03;93509.16;;;13.10;85.24
71057;BME280;58380;48.312;9.246;2023-05-20T08:33:29;93496.63;;;13.16;86.94
71057;BME280;58380;48.312;9.246;2023-05-20T08:35:54;93471.19;;;13.15;85.75
71057;BME280;58380;48.312;9.246;2023-05-20T08:38:20;93501.41;;;13.53;85.67
71057;BME280;58380;48.312;9.246;2023-05-20T08:40:51;93498.47;;;13.55;83.14
71057;BME280;58380;48.312;9.246;2023-05-20T08:43:18;93492.06;;;13.61;81.31
71057;BME280;58380;48.312;9.246;2023-05-20T08:45:43;93427.94;;;13.20;81.47
71057;BME280;58380;48.312;9.246;2023-05-20T08:48:09;93495.50;;;13.62;79.79
71057;BME280;58380;48.312;9.246;2023-05-20T08:50:35;93486.59;;;13.76;84.29
71057;BME280;58380;48.312;9.246;2023-05-20T08:53:01;93483.91;;;13.81;80.39
71057;BME280;58380;48.312;9.246;2023-05-20T08:55:36;93480.63;;;13.90;83.59
71057;BME280;58380;48.312;9.246;2023-05-20T08:58:06;93490.22;;;14.10;81.02
71057;BME280;58380;48.312;9.246;2023-05-20T09:00:32;93494.00;;;14.28;80.09
71057;BME280;58380;48.312;9.246;2023-05-20T09:02:58;93500.66;;;14.25;79.95
71057;BME280;58380;48.312;9.246;2023-05-20T09:05:25;93485.03;;;14.23;80.18
71057;BME280;58380;48.312;9.246;2023-05-20T09:07:51;93471.31;;;14.16;80.77
71057;BME280;58380;48.312;9.246;2023-05-20T09:10:18;93488.66;;;14.33;78.84
71057;BME280;58380;48.312;9.246;2023-05-20T09:12:44;93499.59;;;14.26;78.85
71057;BME280;58380;48.312;9.246;2023-05-20T09:15:10;93478.31;;;14.07;78.00
71057;BME280;58380;48.312;9.246;2023-05-20T09:17:36;93497.59;;;14.18;79.60
71057;BME280;58380;48.312;9.246;2023-05-20T09:20:07;93498.34;;;13.94;79.42
71057;BME280;58380;48.312;9.246;2023-05-20T09:22:34;93504.44;;;13.95;81.41
71057;BME280;58380;48.312;9.246;2023-05-20T09:24:59;93489.16;;;13.87;79.28
71057;BME280;58380;48.312;9.246;2023-05-20T09:27:25;93453.63;;;13.58;82.18
71057;BME280;58380;48.312;9.246;2023-05-20T09:29:50;93474.78;;;13.88;80.43
71057;BME280;58380;48.312;9.246;2023-05-20T09:32:16;93491.13;;;14.24;80.59
71057;BME280;58380;48.312;9.246;2023-05-20T09:34:46;93471.22;;;14.45;81.23
71057;BME280;58380;48.312;9.246;2023-05-20T09:37:13;93492.81;;;14.63;80.08
71057;BME280;58380;48.312;9.246;2023-05-20T09:39:55;93466.72;;;14.65;80.54
71057;BME280;58380;48.312;9.246;2023-05-20T09:42:26;93467.09;;;14.96;80.05
71057;BME280;58380;48.312;9.246;2023-05-20T09:44:56;93484.19;;;15.09;75.48
71057;BME280;58380;48.312;9.246;2023-05-20T09:47:23;93494.44;;;15.35;78.84
71057;BME280;58380;48.312;9.246;2023-05-20T09:49:51;93477.06;;;15.23;75.58
71057;BME280;58380;48.312;9.246;2023-05-20T09:52:17;93464.38;;;15.01;75.75
71057;BME280;58380;48.312;9.246;2023-05-20T09:54:43;93460.19;;;15.14;78.26
71057;BME280;58380;48.312;9.246;2023-05-20T09:57:09;93462.16;;;15.41;77.55
71057;BME280;58380;48.312;9.246;2023-05-20T09:59:37;93449.34;;;15.43;74.96
71057;BME280;58380;48.312;9.246;2023-05-20T10:02:04;93454.91;;;15.61;77.19
71057;BME280;58380;48.312;9.246;2023-05-20T10:04:32;93453.78;;;15.81;74.54
71057;BME280;58380;48.312;9.246;2023-05-20T10:07:17;93453.69;;;16.00;76.13
71057;BME280;58380;48.312;9.246;2023-05-20T10:10:32;93432.19;;;15.82;71.10
71057;BME280;58380;48.312;9.246;2023-05-20T10:16:42;93468.69;;;16.09;77.70
71057;BME280;58380;48.312;9.246;2023-05-20T10:19:26;93464.63;;;16.39;73.45
71057;BME280;58380;48.312;9.246;2023-05-20T10:22:01;93461.75;;;16.50;69.88
71057;BME280;58380;48.312;9.246;2023-05-20T10:24:35;93471.34;;;16.37;72.17
71057;BME280;58380;48.312;9.246;2023-05-20T10:27:11;93455.56;;;16.27;73.99
71057;BME280;58380;48.312;9.246;2023-05-20T10:29:52;93459.81;;;16.42;75.85
71057;BME280;58380;48.312;9.246;2023-05-20T10:32:29;93462.16;;;16.57;70.96
71057;BME280;58380;48.312;9.246;2023-05-20T10:37:27;93439.97;;;16.48;72.29
71057;BME280;58380;48.312;9.246;2023-05-20T10:40:07;93462.47;;;16.14;70.90
71057;BME280;58380;48.312;9.246;2023-05-20T10:42:36;93427.88;;;16.00;74.23
71057;BME280;58380;48.312;9.246;2023-05-20T10:45:03;93439.91;;;16.11;69.89
71057;BME280;58380;48.312;9.246;2023-05-20T10:47:29;93431.22;;;16.06;72.01
71057;BME280;58380;48.312;9.246;2023-05-20T10:49:56;93440.19;;;16.37;73.57
71057;BME280;58380;48.312;9.246;2023-05-20T10:52:23;93397.50;;;16.15;72.18
71057;BME280;58380;48.312;9.246;2023-05-20T10:57:17;93433.75;;;16.25;73.69
71057;BME280;58380;48.312;9.246;2023-05-20T10:59:43;93381.41;;;16.06;73.66
71057;BME280;58380;48.312;9.246;2023-05-20T11:02:09;93427.94;;;16.50;73.94
71057;BME280;58380;48.312;9.246;2023-05-20T11:04:36;93412.13;;;16.54;72.61
71057;BME280;58380;48.312;9.246;2023-05-20T11:07:03;93387.88;;;16.42;72.13
71057;BME280;58380;48.312;9.246;2023-05-20T11:09:29;93415.78;;;16.58;70.83
71057;BME280;58380;48.312;9.246;2023-05-20T11:11:56;93419.34;;;16.53;70.77
71057;BME280;58380;48.312;9.246;2023-05-20T11:14:21;93415.38;;;16.51;72.13
71057;BME280;58380;48.312;9.246;2023-05-20T11:16:51;93419.94;;;16.50;70.43
71057;BME280;58380;48.312;9.246;2023-05-20T11:19:18;93415.22;;;16.33;69.52
71057;BME280;58380;48.312;9.246;2023-05-20T11:21:44;93418.00;;;16.28;69.79
71057;BME280;58380;48.312;9.246;2023-05-20T11:24:11;93405.00;;;16.13;67.57
71057;BME280;58380;48.312;9.246;2023-05-20T11:26:38;93403.50;;;16.21;70.65
71057;BME280;58380;48.312;9.246;2023-05-20T11:29:04;93407.34;;;16.28;69.77
71057;BME280;58380;48.312;9.246;2023-05-20T11:31:30;93423.28;;;16.42;70.44
71057;BME280;58380;48.312;9.246;2023-05-20T11:33:58;93421.00;;;16.63;71.67
71057;BME280;58380;48.312;9.246;2023-05-20T11:36:25;93407.28;;;16.56;72.03
71057;BME280;58380;48.312;9.246;2023-05-20T11:38:53;93426.31;;;16.63;71.46
71057;BME280;58380;48.312;9.246;2023-05-20T11:41:23;93420.00;;;16.59;71.50
71057;BME280;58380;48.312;9.246;2023-05-20T11:43:59;93418.66;;;16.48;69.62
71057;BME280;58380;48.312;9.246;2023-05-20T11:46:26;93412.63;;;16.56;71.40
71057;BME280;58380;48.312;9.246;2023-05-20T11:48:56;93415.28;;;16.92;72.91
71057;BME280;58380;48.312;9.246;2023-05-20T11:51:23;93396.97;;;17.22;67.98
71057;BME280;58380;48.312;9.246;2023-05-20T11:53:51;93405.13;;;17.79;67.31
71057;BME280;58380;48.312;9.246;2023-05-20T11:56:16;93394.88;;;18.04;68.64
71057;BME280;58380;48.312;9.246;2023-05-20T11:58:43;93392.28;;;18.21;66.35
71057;BME280;58380;48.312;9.246;2023-05-20T12:01:09;93366.63;;;18.11;65.71
71057;BME280;58380;48.312;9.246;2023-05-20T12:03:35;93375.31;;;18.26;68.04
71057;BME280;58380;48.312;9.246;2023-05-20T12:06:01;93404.28;;;17.93;65.85
71057;BME280;58380;48.312;9.246;2023-05-20T12:08:27;93398.81;;;17.98;63.77
71057;BME280;58380;48.312;9.246;2023-05-20T12:10:53;93402.91;;;18.04;66.89
71057;BME280;58380;48.312;9.246;2023-05-20T12:13:18;93351.56;;;17.76;66.81
71057;BME280;58380;48.312;9.246;2023-05-20T12:15:44;93392.13;;;18.18;65.17
71057;BME280;58380;48.312;9.246;2023-05-20T12:18:09;93372.31;;;18.19;66.49
71057;BME280;58380;48.312;9.246;2023-05-20T12:20:35;93388.69;;;18.35;65.94
71057;BME280;58380;48.312;9.246;2023-05-20T12:23:01;93383.50;;;18.38;64.64
71057;BME280;58380;48.312;9.246;2023-05-20T12:25:27;93380.38;;;18.53;68.59
71057;BME280;58380;48.312;9.246;2023-05-20T12:27:53;93374.09;;;18.58;66.80
71057;BME280;58380;48.312;9.246;2023-05-20T12:30:20;93381.16;;;18.71;62.71
71057;BME280;58380;48.312;9.246;2023-05-20T12:32:47;93360.56;;;18.72;64.15
71057;BME280;58380;48.312;9.246;2023-05-20T12:35:14;93365.78;;;18.94;64.84
71057;BME280;58380;48.312;9.246;2023-05-20T12:37:41;93377.72;;;19.23;63.43
71057;BME280;58380;48.312;9.246;2023-05-20T12:40:08;93371.16;;;18.77;64.54
71057;BME280;58380;48.312;9.246;2023-05-20T12:42:36;93374.25;;;18.62;62.67
71057;BME280;58380;48.312;9.246;2023-05-20T12:45:03;93370.25;;;18.24;63.62
71057;BME280;58380;48.312;9.246;2023-05-20T12:47:30;93369.00;;;18.22;63.88
71057;BME280;58380;48.312;9.246;2023-05-20T12:49:57;93387.56;;;18.18;64.08
71057;BME280;58380;48.312;9.246;2023-05-20T12:52:22;93386.28;;;18.24;64.25
71057;BME280;58380;48.312;9.246;2023-05-20T12:54:48;93385.84;;;18.22;61.91
71057;BME280;58380;48.312;9.246;2023-05-20T12:57:13;93383.06;;;18.45;63.31
71057;BME280;58380;48.312;9.246;2023-05-20T12:59:39;93343.25;;;18.43;62.19
71057;BME280;58380;48.312;9.246;2023-05-20T13:02:04;93360.09;;;18.61;64.57
71057;BME280;58380;48.312;9.246;2023-05-20T13:04:30;93375.81;;;18.71;62.92
71057;BME280;58380;48.312;9.246;2023-05-20T13:06:56;93384.19;;;18.96;64.18
71057;BME280;58380;48.312;9.246;2023-05-20T13:09:22;93366.91;;;19.02;61.67
71057;BME280;58380;48.312;9.246;2023-05-20T13:11:47;93372.53;;;18.92;60.37
71057;BME280;58380;48.312;9.246;2023-05-20T13:14:13;93362.97;;;19.00;62.62
71057;BME280;58380;48.312;9.246;2023-05-20T13:16:39;93356.34;;;18.97;59.29
71057;BME280;58380;48.312;9.246;2023-05-20T13:19:04;93369.25;;;18.95;62.39
71057;BME280;58380;48.312;9.246;2023-05-20T13:21:29;93360.41;;;18.94;62.08
71057;BME280;58380;48.312;9.246;2023-05-20T13:23:55;93335.56;;;18.68;62.55
71057;BME280;58380;48.312;9.246;2023-05-20T13:26:21;93350.03;;;19.02;63.30
71057;BME280;58380;48.312;9.246;2023-05-20T13:28:47;93360.09;;;19.22;62.31
71057;BME280;58380;48.312;9.246;2023-05-20T13:31:13;93340.16;;;19.02;56.08
71057;BME280;58380;48.312;9.246;2023-05-20T13:33:38;93353.50;;;19.11;59.58
71057;BME280;58380;48.312;9.246;2023-05-20T13:36:03;93357.59;;;19.17;57.69
71057;BME280;58380;48.312;9.246;2023-05-20T13:38:29;93355.56;;;18.88;55.20
71057;BME280;58380;48.312;9.246;2023-05-20T13:40:54;93348.63;;;18.61;59.77
71057;BME280;58380;48.312;9.246;2023-05-20T13:43:23;93351.94;;;18.58;61.40
71057;BME280;58380;48.312;9.246;2023-05-20T13:45:50;93352.09;;;18.70;59.19
71057;BME280;58380;48.312;9.246;2023-05-20T13:48:16;93342.38;;;18.83;59.54
71057;BME280;58380;48.312;9.246;2023-05-20T13:50:41;93339.19;;;18.98;57.95
71057;BME280;58380;48.312;9.246;2023-05-20T13:53:07;93332.28;;;18.88;58.69
71057;BME280;58380;48.312;9.246;2023-05-20T13:55:36;93350.53;;;18.95;60.24
71057;BME280;58380;48.312;9.246;2023-05-20T13:58:02;93343.13;;;18.83;61.12
71057;BME280;58380;48.312;9.246;2023-05-20T14:00:30;93324.41;;;18.57;59.56
71057;BME280;58380;48.312;9.246;2023-05-20T14:02:56;93323.94;;;18.81;60.33
71057;BME280;58380;48.312;9.246;2023-05-20T14:05:21;93339.34;;;19.02;60.15
71057;BME280;58380;48.312;9.246;2023-05-20T14:07:47;93300.47;;;19.04;59.70
71057;BME280;58380;48.312;9.246;2023-05-20T14:10:13;93311.34;;;18.99;60.22
71057;BME280;58380;48.312;9.246;2023-05-20T14:12:38;93312.78;;;18.88;59.46
71057;BME280;58380;48.312;9.246;2023-05-20T14:15:04;93325.03;;;18.98;59.63
71057;BME280;58380;48.312;9.246;2023-05-20T14:17:30;93300.06;;;18.85;58.96
71057;BME280;58380;48.312;9.246;2023-05-20T14:19:55;93311.97;;;18.96;59.11
71057;BME280;58380;48.312;9.246;2023-05-20T14:22:20;93321.38;;;19.11;58.95
71057;BME280;58380;48.312;9.246;2023-05-20T14:24:46;93324.38;;;19.09;57.77
71057;BME280;58380;48.312;9.246;2023-05-20T14:27:11;93310.06;;;18.96;58.76
71057;BME280;58380;48.312;9.246;2023-05-20T14:29:38;93288.06;;;18.73;58.67
71057;BME280;58380;48.312;9.246;2023-05-20T14:32:03;93314.16;;;18.94;59.21
71057;BME280;58380;48.312;9.246;2023-05-20T14:34:29;93322.06;;;18.90;58.53
71057;BME280;58380;48.312;9.246;2023-05-20T14:36:55;93300.66;;;18.56;60.02
71057;BME280;58380;48.312;9.246;2023-05-20T14:39:21;93302.88;;;18.45;61.47
71057;BME280;58380;48.312;9.246;2023-05-20T14:41:46;93315.13;;;18.54;61.63
71057;BME280;58380;48.312;9.246;2023-05-20T14:44:12;93304.59;;;18.84;62.17
71057;BME280;58380;48.312;9.246;2023-05-20T14:46:37;93314.09;;;19.29;58.14
71057;BME280;58380;48.312;9.246;2023-05-20T14:49:03;93291.66;;;19.59;56.42
71057;BME280;58380;48.312;9.246;2023-05-20T14:51:28;93294.31;;;19.98;56.31
71057;BME280;58380;48.312;9.246;2023-05-20T14:53:54;93297.66;;;20.16;55.12
71057;BME280;58380;48.312;9.246;2023-05-20T14:56:19;93316.03;;;20.26;54.91
71057;BME280;58380;48.312;9.246;2023-05-20T14:58:44;93299.28;;;20.29;55.18
71057;BME280;58380;48.312;9.246;2023-05-20T15:01:10;93314.06;;;20.65;57.20
71057;BME280;58380;48.312;9.246;2023-05-20T15:03:35;93326.66;;;20.85;54.61
71057;BME280;58380;48.312;9.246;2023-05-20T15:06:01;93325.06;;;21.05;50.77
71057;BME280;58380;48.312;9.246;2023-05-20T15:08:26;93323.19;;;20.85;51.26
71057;BME280;58380;48.312;9.246;2023-05-20T15:10:51;93334.56;;;20.40;52.40
71057;BME280;58380;48.312;9.246;2023-05-20T15:13:17;93329.22;;;19.80;56.24
71057;BME280;58380;48.312;9.246;2023-05-20T15:15:43;93331.84;;;19.89;57.60
71057;BME280;58380;48.312;9.246;2023-05-20T15:18:08;93329.44;;;19.96;55.42
71057;BME280;58380;48.312;9.246;2023-05-20T15:20:35;93311.13;;;20.07;55.24
71057;BME280;58380;48.312;9.246;2023-05-20T15:23:00;93337.84;;;20.66;54.21
71057;BME280;58380;48.312;9.246;2023-05-20T15:25:25;93326.66;;;20.85;53.69
71057;BME280;58380;48.312;9.246;2023-05-20T15:27:51;93285.06;;;20.79;53.07
71057;BME280;58380;48.312;9.246;2023-05-20T15:30:16;93317.91;;;21.09;54.23
71057;BME280;58380;48.312;9.246;2023-05-20T15:32:42;93310.34;;;20.90;52.57
71057;BME280;58380;48.312;9.246;2023-05-20T15:35:07;93318.97;;;20.54;53.67
71057;BME280;58380;48.312;9.246;2023-05-20T15:37:33;93305.72;;;20.37;54.55
71057;BME280;58380;48.312;9.246;2023-05-20T15:39:58;93317.72;;;20.60;55.87
71057;BME280;58380;48.312;9.246;2023-05-20T15:42:23;93294.72;;;20.30;52.48
71057;BME280;58380;48.312;9.246;2023-05-20T15:44:49;93327.13;;;20.66;56.30
71057;BME280;58380;48.312;9.246;2023-05-20T15:47:14;93318.41;;;20.90;54.90
71057;BME280;58380;48.312;9.246;2023-05-20T15:49:40;93328.22;;;21.20;52.89
71057;BME280;58380;48.312;9.246;2023-05-20T15:52:06;93309.91;;;21.34;54.21
71057;BME280;58380;48.312;9.246;2023-05-20T15:54:31;93318.56;;;21.40;54.06
71057;BME280;58380;48.312;9.246;2023-05-20T15:56:57;93322.72;;;20.83;55.17
71057;BME280;58380;48.312;9.246;2023-05-20T15:59:22;93325.75;;;20.60;53.60
71057;BME280;58380;48.312;9.246;2023-05-20T16:01:47;93311.44;;;20.26;56.39
71057;BME280;58380;48.312;9.246;2023-05-20T16:04:13;93318.50;;;20.31;56.75
71057;BME280;58380;48.312;9.246;2023-05-20T16:06:38;93312.28;;;20.18;56.98
71057;BME280;58380;48.312;9.246;2023-05-20T16:09:03;93306.75;;;20.23;55.72
71057;BME280;58380;48.312;9.246;2023-05-20T16:11:29;93316.56;;;20.40;56.78
71057;BME280;58380;48.312;9.246;2023-05-20T16:13:56;93309.22;;;20.29;57.67
71057;BME280;58380;48.312;9.246;2023-05-20T16:16:23;93291.72;;;20.10;56.62
71057;BME280;58380;48.312;9.246;2023-05-20T16:18:49;93288.34;;;19.92;53.47
71057;BME280;58380;48.312;9.246;2023-05-20T16:21:17;93307.03;;;20.01;56.66
71057;BME280;58380;48.312;9.246;2023-05-20T16:23:42;93320.63;;;19.96;56.06
71057;BME280;58380;48.312;9.246;2023-05-20T16:26:08;93313.91;;;19.90;55.37
71057;BME280;58380;48.312;9.246;2023-05-20T16:28:33;93303.69;;;19.83;57.35
71057;BME280;58380;48.312;9.246;2023-05-20T16:30:59;93286.53;;;19.67;58.22
71057;BME280;58380;48.312;9.246;2023-05-20T16:33:24;93303.13;;;19.69;57.66
71057;BME280;58380;48.312;9.246;2023-05-20T16:35:50;93281.13;;;19.46;59.34
71057;BME280;58380;48.312;9.246;2023-05-20T16:38:16;93290.41;;;19.48;57.43
71057;BME280;58380;48.312;9.246;2023-05-20T16:40:41;93310.28;;;19.47;59.06
71057;BME280;58380;48.312;9.246;2023-05-20T16:43:06;93310.13;;;19.44;60.30
71057;BME280;58380;48.312;9.246;2023-05-20T16:45:32;93309.03;;;19.45;61.38
71057;BME280;58380;48.312;9.246;2023-05-20T16:47:57;93311.91;;;19.31;58.31
71057;BME280;58380;48.312;9.246;2023-05-20T16:50:23;93295.41;;;19.20;60.57
71057;BME280;58380;48.312;9.246;2023-05-20T16:52:48;93297.31;;;19.20;60.67
71057;BME280;58380;48.312;9.246;2023-05-20T16:55:13;93318.84;;;19.23;58.24
71057;BME280;58380;48.312;9.246;2023-05-20T16:57:39;93316.00;;;19.28;60.12
71057;BME280;58380;48.312;9.246;2023-05-20T17:00:04;93321.66;;;19.35;60.78
71057;BME280;58380;48.312;9.246;2023-05-20T17:02:34;93316.28;;;19.35;59.41
71057;BME280;58380;48.312;9.246;2023-05-20T17:05:00;93304.50;;;19.28;61.96
71057;BME280;58380;48.312;9.246;2023-05-20T17:07:25;93326.81;;;19.40;61.20
71057;BME280;58380;48.312;9.246;2023-05-20T17:09:50;93327.59;;;19.41;60.10
71057;BME280;58380;48.312;9.246;2023-05-20T17:12:16;93324.44;;;19.48;61.71
71057;BME280;58380;48.312;9.246;2023-05-20T17:14:41;93316.75;;;19.37;59.55
71057;BME280;58380;48.312;9.246;2023-05-20T17:17:06;93323.69;;;19.38;59.02
71057;BME280;58380;48.312;9.246;2023-05-20T17:19:33;93305.00;;;19.21;60.72
71057;BME280;58380;48.312;9.246;2023-05-20T17:21:59;93329.69;;;19.27;59.66
71057;BME280;58380;48.312;9.246;2023-05-20T17:24:25;93332.69;;;19.25;59.41
71057;BME280;58380;48.312;9.246;2023-05-20T17:26:50;93309.44;;;19.17;61.09
71057;BME280;58380;48.312;9.246;2023-05-20T17:29:16;93329.09;;;19.12;60.29
71057;BME280;58380;48.312;9.246;2023-05-20T17:31:43;93324.56;;;18.95;60.22
71057;BME280;58380;48.312;9.246;2023-05-20T17:34:08;93323.94;;;18.81;59.95
71057;BME280;58380;48.312;9.246;2023-05-20T17:36:34;93334.50;;;18.78;60.76
71057;BME280;58380;48.312;9.246;2023-05-20T17:38:59;93338.09;;;18.73;61.88
71057;BME280;58380;48.312;9.246;2023-05-20T17:41:28;93329.44;;;18.67;63.11
71057;BME280;58380;48.312;9.246;2023-05-20T17:43:53;93334.31;;;18.65;61.87
71057;BME280;58380;48.312;9.246;2023-05-20T17:46:19;93332.28;;;18.62;61.37
71057;BME280;58380;48.312;9.246;2023-05-20T17:48:44;93332.88;;;18.59;62.64
71057;BME280;58380;48.312;9.246;2023-05-20T17:51:10;93317.94;;;18.49;62.14
71057;BME280;58380;48.312;9.246;2023-05-20T17:53:35;93333.69;;;18.51;63.52
71057;BME280;58380;48.312;9.246;2023-05-20T17:56:00;93320.00;;;18.35;64.48
71057;BME280;58380;48.312;9.246;2023-05-20T17:58:26;93333.50;;;18.39;64.79
71057;BME280;58380;48.312;9.246;2023-05-20T18:00:52;93290.91;;;18.07;65.70
71057;BME280;58380;48.312;9.246;2023-05-20T18:03:18;93324.84;;;18.24;66.02
71057;BME280;58380;48.312;9.246;2023-05-20T18:05:44;93336.00;;;18.18;64.44
71057;BME280;58380;48.312;9.246;2023-05-20T18:08:10;93332.88;;;18.16;65.74
71057;BME280;58380;48.312;9.246;2023-05-20T18:10:35;93303.31;;;17.95;66.92
71057;BME280;58380;48.312;9.246;2023-05-20T18:13:01;93323.69;;;17.99;67.75
71057;BME280;58380;48.312;9.246;2023-05-20T18:15:26;93333.44;;;17.95;68.26
71057;BME280;58380;48.312;9.246;2023-05-20T18:17:52;93321.81;;;17.82;66.49
71057;BME280;58380;48.312;9.246;2023-05-20T18:20:18;93336.56;;;17.80;68.93
71057;BME280;58380;48.312;9.246;2023-05-20T18:22:43;93309.44;;;17.55;69.30
71057;BME280;58380;48.312;9.246;2023-05-20T18:25:15;93339.91;;;17.63;70.41
71057;BME280;58380;48.312;9.246;2023-05-20T18:27:41;93327.41;;;17.41;69.82
71057;BME280;58380;48.312;9.246;2023-05-20T18:30:08;93335.28;;;17.46;71.20
71057;BME280;58380;48.312;9.246;2023-05-20T18:32:34;93353.31;;;17.40;71.44
71057;BME280;58380;48.312;9.246;2023-05-20T18:35:00;93341.47;;;17.24;71.58
71057;BME280;58380;48.312;9.246;2023-05-20T18:37:26;93341.91;;;17.17;71.90
71057;BME280;58380;48.312;9.246;2023-05-20T18:39:52;93338.03;;;17.01;72.88
71057;BME280;58380;48.312;9.246;2023-05-20T18:42:22;93350.13;;;17.07;73.05
71057;BME280;58380;48.312;9.246;2023-05-20T18:44:47;93331.50;;;16.85;74.26
71057;BME280;58380;48.312;9.246;2023-05-20T18:47:13;93322.38;;;16.63;74.72
71057;BME280;58380;48.312;9.246;2023-05-20T18:49:40;93340.59;;;16.70;75.17
71057;BME280;58380;48.312;9.246;2023-05-20T18:52:06;93335.84;;;16.58;75.31
71057;BME280;58380;48.312;9.246;2023-05-20T18:54:31;93333.41;;;16.48;76.30
71057;BME280;58380;48.312;9.246;2023-05-20T18:56:56;93338.34;;;16.41;77.94
71057;BME280;58380;48.312;9.246;2023-05-20T18:59:22;93330.44;;;16.13;79.48
71057;BME280;58380;48.312;9.246;2023-05-20T19:01:47;93329.16;;;15.96;80.21
71057;BME280;58380;48.312;9.246;2023-05-20T19:04:13;93348.31;;;15.99;81.01
71057;BME280;58380;48.312;9.246;2023-05-20T19:06:38;93351.78;;;15.85;82.16
71057;BME280;58380;48.312;9.246;2023-05-20T19:09:04;93359.06;;;15.80;82.57
71057;BME280;58380;48.312;9.246;2023-05-20T19:11:30;93356.50;;;15.74;83.03
71057;BME280;58380;48.312;9.246;2023-05-20T19:13:55;93330.63;;;15.47;83.64
71057;BME280;58380;48.312;9.246;2023-05-20T19:16:24;93338.72;;;15.42;84.09
71057;BME280;58380;48.312;9.246;2023-05-20T19:18:50;93329.22;;;15.22;84.39
71057;BME280;58380;48.312;9.246;2023-05-20T19:21:16;93355.16;;;15.30;84.50
71057;BME280;58380;48.312;9.246;2023-05-20T19:23:41;93372.19;;;15.29;84.84
71057;BME280;58380;48.312;9.246;2023-05-20T19:26:07;93369.34;;;15.26;85.01
71057;BME280;58380;48.312;9.246;2023-05-20T19:28:33;93352.78;;;15.15;84.71
71057;BME280;58380;48.312;9.246;2023-05-20T19:30:58;93390.38;;;15.22;85.73
71057;BME280;58380;48.312;9.246;2023-05-20T19:33:24;93385.84;;;15.09;86.06
71057;BME280;58380;48.312;9.246;2023-05-20T19:35:49;93380.50;;;14.95;86.86
71057;BME280;58380;48.312;9.246;2023-05-20T19:38:15;93374.91;;;14.78;87.57
71057;BME280;58380;48.312;9.246;2023-05-20T19:40:42;93349.56;;;14.48;87.94
71057;BME280;58380;48.312;9.246;2023-05-20T19:43:08;93377.59;;;14.59;88.50
71057;BME280;58380;48.312;9.246;2023-05-20T19:45:34;93379.84;;;14.46;89.14
71057;BME280;58380;48.312;9.246;2023-05-20T19:48:00;93393.34;;;14.50;89.52